Time;durP1;ratioP1;P1;durP2;ratioP2;P2;SDS_P1;SDS_P2;PMS_P1;PMS_P2;Temp;Humidity;BMP_temperature;BMP_pressure;BME280_temperature;BME280_humidity;BME280_pressure;Samples;Min_cycle;Max_cycle;Signal;HPM_P1;HPM_P2
2023/05/11 00:00:43;;;;;;;;;;;;;;;13.91;93.96;101538.13;20686346;28;19976;-57
2023/05/11 00:11:08;;;;;;;;;;;;;;;13.76;94.12;101543.81;20694703;28;19995;-56
2023/05/11 00:21:29;;;;;;;;;;;;;;;13.69;93.60;101544.91;20700698;28;20388;-58
2023/05/11 00:31:51;;;;;;;;;;;;;;;13.65;93.92;101551.09;20723270;28;19980;-56
2023/05/11 00:42:12;;;;;;;;;;;;;;;13.60;92.60;101547.78;20697455;28;20060;-58
2023/05/11 00:52:34;;;;;;;;;;;;;;;13.53;93.09;101546.28;20714616;28;20021;-57
2023/05/11 01:02:56;;;;;;;;;;;;;;;13.45;93.99;101548.25;20698224;28;19933;-56
2023/05/11 01:13:32;;;;;;;;;;;;;;;13.34;94.04;101551.19;20697521;28;19925;-56
2023/05/11 01:23:56;;;;;;;;;;;;;;;13.28;93.57;101561.75;20706943;28;19925;-56
2023/05/11 01:34:20;;;;;;;;;;;;;;;13.28;94.05;101566.94;20707453;28;19925;-56
2023/05/11 01:44:43;;;;;;;;;;;;;;;13.27;91.66;101582.59;20696947;28;20352;-56
2023/05/11 01:55:05;;;;;;;;;;;;;;;13.24;92.88;101585.28;20688210;28;20293;-58
2023/05/11 02:05:27;;;;;;;;;;;;;;;13.13;93.48;101582.97;20704889;28;19934;-58
2023/05/11 02:15:51;;;;;;;;;;;;;;;13.04;93.50;101598.81;20709548;28;19926;-56
2023/05/11 02:26:15;;;;;;;;;;;;;;;12.89;94.15;101596.63;20714120;28;19972;-54
2023/05/11 02:36:37;;;;;;;;;;;;;;;12.87;94.04;101608.81;20706585;28;20368;-56
2023/05/11 02:47:01;;;;;;;;;;;;;;;12.76;94.68;101618.63;20698438;28;19952;-55
2023/05/11 02:57:23;;;;;;;;;;;;;;;12.72;93.80;101611.81;20694445;28;19929;-54
2023/05/11 03:07:44;;;;;;;;;;;;;;;12.62;96.47;101616.38;20686707;28;20277;-54
2023/05/11 03:18:06;;;;;;;;;;;;;;;12.62;94.25;101616.38;20692355;28;19976;-54
2023/05/11 03:28:28;;;;;;;;;;;;;;;12.62;94.43;101613.78;20703910;28;19957;-56
2023/05/11 03:38:52;;;;;;;;;;;;;;;12.56;94.47;101615.69;20687650;28;20305;-56
2023/05/11 03:49:14;;;;;;;;;;;;;;;12.49;94.89;101611.56;20706822;28;19980;-55
2023/05/11 03:59:38;;;;;;;;;;;;;;;12.49;95.27;101622.75;20719723;28;20328;-54
2023/05/11 04:09:59;;;;;;;;;;;;;;;12.45;94.23;101618.56;20717561;28;19925;-54
2023/05/11 04:20:20;;;;;;;;;;;;;;;12.34;93.76;101620.56;20716565;28;19932;-54
2023/05/11 04:30:42;;;;;;;;;;;;;;;12.25;95.05;101619.94;20713653;28;19926;-56
2023/05/11 04:41:04;;;;;;;;;;;;;;;12.21;94.86;101624.34;20716514;28;20065;-55
2023/05/11 04:51:25;;;;;;;;;;;;;;;12.12;94.92;101619.38;20707513;28;20292;-54
2023/05/11 05:01:47;;;;;;;;;;;;;;;12.05;95.75;101625.56;20703619;28;19932;-53
2023/05/11 05:12:08;;;;;;;;;;;;;;;12.18;95.03;101634.78;20703330;28;19929;-56
2023/05/11 05:22:30;;;;;;;;;;;;;;;12.12;94.56;101640.13;20715919;28;19986;-55
2023/05/11 05:32:52;;;;;;;;;;;;;;;12.19;94.96;101649.47;20694462;28;19936;-54
2023/05/11 05:43:13;;;;;;;;;;;;;;;12.21;94.39;101668.47;20703460;28;19956;-54
2023/05/11 05:53:35;;;;;;;;;;;;;;;12.16;94.33;101672.88;20696429;28;19992;-54
2023/05/11 06:03:56;;;;;;;;;;;;;;;12.21;94.53;101689.22;20691910;28;19992;-55
2023/05/11 06:14:19;;;;;;;;;;;;;;;12.25;94.72;101698.63;20696241;28;19926;-56
2023/05/11 06:24:40;;;;;;;;;;;;;;;12.33;96.00;101691.53;20692294;28;19961;-55
2023/05/11 06:35:02;;;;;;;;;;;;;;;12.43;95.37;101687.84;20691274;28;19973;-54
2023/05/11 06:45:23;;;;;;;;;;;;;;;12.51;95.42;101685.03;20697225;28;19952;-56
2023/05/11 06:55:45;;;;;;;;;;;;;;;12.42;95.11;101691.31;20704785;28;20036;-56
2023/05/11 07:06:06;;;;;;;;;;;;;;;12.47;95.29;101693.81;20686895;28;19933;-55
2023/05/11 07:16:28;;;;;;;;;;;;;;;12.59;95.56;101689.16;20690335;28;19943;-56
2023/05/11 07:26:50;;;;;;;;;;;;;;;12.69;96.11;101701.00;20677711;28;19964;-56
2023/05/11 07:37:12;;;;;;;;;;;;;;;12.78;96.10;101708.59;20695581;28;19933;-55
2023/05/11 07:47:33;;;;;;;;;;;;;;;12.87;94.13;101710.94;20688527;28;19933;-55
2023/05/11 07:57:57;;;;;;;;;;;;;;;12.99;94.58;101704.59;20685286;28;19952;-56
2023/05/11 08:08:18;;;;;;;;;;;;;;;13.10;93.38;101713.00;20690227;28;19938;-55
2023/05/11 08:18:40;;;;;;;;;;;;;;;13.19;95.05;101715.34;20703057;28;19926;-55
2023/05/11 08:29:03;;;;;;;;;;;;;;;13.28;93.47;101729.84;20717376;28;20053;-55
2023/05/11 08:39:24;;;;;;;;;;;;;;;13.37;92.96;101727.03;20716341;28;19932;-57
2023/05/11 08:50:06;;;;;;;;;;;;;;;13.49;92.87;101732.75;20701481;28;20301;-57
2023/05/11 09:00:28;;;;;;;;;;;;;;;13.69;92.59;101732.19;20705991;28;19930;-56
2023/05/11 09:10:50;;;;;;;;;;;;;;;13.97;90.56;101733.09;20712556;28;19934;-55
2023/05/11 09:21:12;;;;;;;;;;;;;;;14.14;89.64;101728.22;20701488;28;20440;-55
2023/05/11 09:31:39;;;;;;;;;;;;;;;14.43;88.17;101730.81;20713796;28;21119;-57
2023/05/11 09:42:13;;;;;;;;;;;;;;;14.56;88.01;101726.91;20696398;28;19929;-57
2023/05/11 09:52:42;;;;;;;;;;;;;;;14.73;88.69;101724.63;20696584;28;19984;-56
2023/05/11 10:03:05;;;;;;;;;;;;;;;14.78;88.34;101722.72;20690046;28;19925;-55
2023/05/11 10:13:28;;;;;;;;;;;;;;;14.92;86.55;101715.28;20701545;28;20394;-55
2023/05/11 10:23:49;;;;;;;;;;;;;;;15.16;86.27;101718.84;20713627;28;19930;-57
2023/05/11 10:34:11;;;;;;;;;;;;;;;15.13;86.63;101710.28;20692849;28;19969;-55
2023/05/11 10:44:43;;;;;;;;;;;;;;;15.26;87.04;101706.31;20707054;28;19929;-55
2023/05/11 10:55:24;;;;;;;;;;;;;;;15.35;85.63;101713.81;20703703;28;19972;-57
2023/05/11 11:05:46;;;;;;;;;;;;;;;15.39;85.44;101720.63;20689118;28;20009;-56
2023/05/11 11:16:08;;;;;;;;;;;;;;;15.46;85.21;101722.13;20689066;28;19925;-55
2023/05/11 11:26:46;;;;;;;;;;;;;;;15.53;84.35;101714.03;20703299;28;19932;-55
2023/05/11 11:37:08;;;;;;;;;;;;;;;15.68;83.47;101720.47;20705594;28;19930;-57
2023/05/11 11:47:29;;;;;;;;;;;;;;;15.66;86.18;101709.22;20684167;28;19926;-57
2023/05/11 11:57:51;;;;;;;;;;;;;;;15.96;84.05;101713.31;20692783;28;19930;-57
2023/05/11 12:08:14;;;;;;;;;;;;;;;15.77;87.16;101720.13;20707208;28;19971;-56
2023/05/11 12:18:35;;;;;;;;;;;;;;;15.75;85.66;101720.19;20715905;28;19926;-57
2023/05/11 12:29:07;;;;;;;;;;;;;;;15.74;88.44;101717.63;20701179;28;19937;-55
2023/05/11 12:39:30;;;;;;;;;;;;;;;15.61;86.88;101712.03;20712396;28;19926;-56
2023/05/11 12:49:51;;;;;;;;;;;;;;;15.65;86.27;101717.97;20713117;28;19969;-57
2023/05/11 13:00:13;;;;;;;;;;;;;;;15.85;85.81;101707.66;20711985;28;19965;-55
2023/05/11 13:10:34;;;;;;;;;;;;;;;15.95;84.55;101701.19;20711195;28;19934;-56
2023/05/11 13:21:06;;;;;;;;;;;;;;;16.08;86.54;101695.41;20700895;28;19975;-57
2023/05/11 13:31:27;;;;;;;;;;;;;;;16.19;84.86;101684.53;20694669;28;19939;-56
2023/05/11 13:41:49;;;;;;;;;;;;;;;16.21;84.18;101674.06;20697986;28;19929;-57
2023/05/11 13:52:14;;;;;;;;;;;;;;;16.19;84.00;101674.09;20708966;28;19976;-58
2023/05/11 14:02:35;;;;;;;;;;;;;;;16.26;85.75;101675.53;20710965;28;19926;-57
2023/05/11 14:12:56;;;;;;;;;;;;;;;16.23;83.52;101667.84;20688876;28;20100;-58
2023/05/11 14:23:18;;;;;;;;;;;;;;;16.17;85.33;101675.91;20692706;28;19926;-58
2023/05/11 14:33:39;;;;;;;;;;;;;;;16.09;86.01;101667.53;20706413;28;19929;-58
2023/05/11 14:44:01;;;;;;;;;;;;;;;16.01;87.50;101669.59;20699047;28;19976;-58
2023/05/11 14:54:22;;;;;;;;;;;;;;;15.96;88.95;101651.50;20712357;28;19995;-58
2023/05/11 15:04:43;;;;;;;;;;;;;;;15.88;89.05;101660.53;20697337;28;19973;-57
2023/05/11 15:15:05;;;;;;;;;;;;;;;15.82;89.62;101656.41;20692614;28;20011;-58
2023/05/11 15:25:26;;;;;;;;;;;;;;;15.86;91.88;101659.72;20701009;28;19930;-56
2023/05/11 15:35:49;;;;;;;;;;;;;;;15.77;88.84;101680.97;20694924;28;19934;-56
2023/05/11 15:46:10;;;;;;;;;;;;;;;15.63;89.39;101680.66;20705621;28;19925;-54
2023/05/11 15:56:32;;;;;;;;;;;;;;;15.47;90.03;101679.50;20702764;28;19936;-57
2023/05/11 16:06:53;;;;;;;;;;;;;;;15.39;91.69;101694.53;20710944;28;19930;-56
2023/05/11 16:17:18;;;;;;;;;;;;;;;15.37;89.55;101696.34;20712369;28;19973;-55
2023/05/11 16:27:39;;;;;;;;;;;;;;;15.22;92.36;101707.34;20703192;28;19932;-57
2023/05/11 16:38:01;;;;;;;;;;;;;;;15.14;90.41;101711.03;20704873;28;19925;-56
2023/05/11 16:48:25;;;;;;;;;;;;;;;15.07;91.14;101722.59;20719643;28;19934;-57
2023/05/11 16:58:47;;;;;;;;;;;;;;;15.03;90.76;101713.16;20698191;28;19980;-55
2023/05/11 17:09:08;;;;;;;;;;;;;;;14.97;94.62;101697.75;20715716;28;19937;-55
2023/05/11 17:19:30;;;;;;;;;;;;;;;14.89;93.24;101675.44;20704822;28;19926;-55
2023/05/11 17:29:51;;;;;;;;;;;;;;;14.74;93.44;101695.06;20689307;28;19940;-54
2023/05/11 17:40:14;;;;;;;;;;;;;;;14.62;94.55;101687.66;20711829;28;19929;-55
2023/05/11 17:50:36;;;;;;;;;;;;;;;14.53;93.53;101689.72;20697589;28;19933;-54
2023/05/11 18:00:57;;;;;;;;;;;;;;;14.39;94.34;101691.91;20689198;28;19926;-56
2023/05/11 18:11:18;;;;;;;;;;;;;;;14.29;95.40;101714.78;20695944;28;19979;-54
2023/05/11 18:21:40;;;;;;;;;;;;;;;14.23;94.68;101701.91;20701403;28;19930;-57
2023/05/11 18:32:01;;;;;;;;;;;;;;;14.20;94.49;101706.34;20689609;28;20447;-55
2023/05/11 18:42:23;;;;;;;;;;;;;;;14.20;95.52;101737.59;20692371;28;19929;-55
2023/05/11 18:52:44;;;;;;;;;;;;;;;14.18;96.52;101727.25;20707901;28;21700;-56
2023/05/11 19:03:06;;;;;;;;;;;;;;;14.12;94.59;101715.25;20691454;28;20470;-55
2023/05/11 19:13:28;;;;;;;;;;;;;;;14.10;96.03;101718.78;20688823;28;19972;-55
2023/05/11 19:23:49;;;;;;;;;;;;;;;14.13;97.51;101731.75;20682766;28;19929;-55
2023/05/11 19:34:10;;;;;;;;;;;;;;;14.11;98.98;101749.16;20685295;28;19929;-57
2023/05/11 19:44:33;;;;;;;;;;;;;;;14.14;97.04;101751.66;20700173;28;19925;-57
2023/05/11 19:54:54;;;;;;;;;;;;;;;14.14;96.46;101765.53;20698733;28;19932;-57
2023/05/11 20:05:16;;;;;;;;;;;;;;;14.14;96.89;101778.53;20694294;28;19968;-56
2023/05/11 20:15:37;;;;;;;;;;;;;;;14.18;99.11;101788.84;20692217;28;20312;-55
2023/05/11 20:25:59;;;;;;;;;;;;;;;14.15;97.52;101785.44;20691269;28;19933;-57
2023/05/11 20:36:21;;;;;;;;;;;;;;;14.15;96.92;101787.22;20699706;28;20381;-55
2023/05/11 20:46:42;;;;;;;;;;;;;;;14.10;97.40;101778.66;20710001;28;19965;-56
2023/05/11 20:57:04;;;;;;;;;;;;;;;14.10;99.35;101763.91;20703529;28;19987;-58
2023/05/11 21:07:27;;;;;;;;;;;;;;;14.05;98.07;101752.78;20713989;28;19933;-56
2023/05/11 21:17:48;;;;;;;;;;;;;;;14.08;97.73;101762.25;20697013;28;19965;-57
2023/05/11 21:28:10;;;;;;;;;;;;;;;14.09;100.00;101756.16;20710177;28;19962;-57
2023/05/11 21:38:31;;;;;;;;;;;;;;;14.04;97.59;101753.69;20713750;28;19929;-57
2023/05/11 21:48:52;;;;;;;;;;;;;;;14.07;99.13;101752.72;20709884;28;19984;-55
2023/05/11 21:59:15;;;;;;;;;;;;;;;14.12;98.95;101745.63;20706189;28;19930;-56
2023/05/11 22:09:37;;;;;;;;;;;;;;;14.13;98.55;101744.75;20689562;28;20382;-57
2023/05/11 22:19:58;;;;;;;;;;;;;;;14.18;97.79;101750.66;20691706;28;20358;-55
2023/05/11 22:30:20;;;;;;;;;;;;;;;14.18;98.54;101740.25;20698403;28;20595;-55
2023/05/11 22:40:41;;;;;;;;;;;;;;;14.24;97.17;101745.28;20708709;28;19965;-55
2023/05/11 22:51:05;;;;;;;;;;;;;;;14.23;98.30;101747.94;20695064;28;19975;-57
2023/05/11 23:01:27;;;;;;;;;;;;;;;14.25;98.20;101746.16;20693481;28;19933;-56
2023/05/11 23:11:48;;;;;;;;;;;;;;;14.27;98.01;101766.03;20702815;28;19933;-55
2023/05/11 23:22:10;;;;;;;;;;;;;;;14.26;98.98;101766.91;20699977;28;20387;-55
2023/05/11 23:32:31;;;;;;;;;;;;;;;14.27;100.00;101755.63;20707828;28;19967;-55
2023/05/11 23:42:53;;;;;;;;;;;;;;;14.24;98.09;101766.13;20690469;28;20382;-54
2023/05/11 23:53:14;;;;;;;;;;;;;;;14.24;98.18;101763.50;20688564;28;19934;-56
